createdAt,value
2019-05-25T00:02:09.081Z,15.44
2019-05-25T00:04:38.340Z,15.89
2019-05-25T00:07:09.235Z,15.93
2019-05-25T00:09:38.464Z,16.04
2019-05-25T00:12:07.888Z,16.08
2019-05-25T00:14:37.132Z,16.04
2019-05-25T00:17:05.948Z,16.08
2019-05-25T00:19:34.844Z,15.83
2019-05-25T00:22:03.733Z,15.93
2019-05-25T00:24:32.623Z,15.74
2019-05-25T00:27:01.626Z,15.66
2019-05-25T00:29:30.509Z,15.78
2019-05-25T00:31:59.412Z,15.85
2019-05-25T00:34:28.289Z,15.94
2019-05-25T00:36:57.286Z,15.88
2019-05-25T00:39:26.175Z,15.98
2019-05-25T00:41:54.983Z,15.81
2019-05-25T00:44:25.414Z,15.96
2019-05-25T00:46:54.284Z,16.10
2019-05-25T00:49:23.173Z,16.04
2019-05-25T00:51:52.066Z,15.89
2019-05-25T00:54:27.906Z,16.07
2019-05-25T00:56:51.589Z,16.04
2019-05-25T00:59:20.623Z,16.05
2019-05-25T01:01:49.473Z,15.49
2019-05-25T01:04:18.363Z,15.51
2019-05-25T01:06:47.870Z,15.80
2019-05-25T01:09:16.761Z,15.85
2019-05-25T01:11:45.656Z,15.64
2019-05-25T01:14:14.444Z,15.87
2019-05-25T01:16:43.340Z,15.80
2019-05-25T01:19:12.229Z,15.81
2019-05-25T01:21:41.116Z,16.05
2019-05-25T01:24:10.416Z,15.73
2019-05-25T01:26:39.412Z,15.50
2019-05-25T01:29:08.611Z,15.78
2019-05-25T01:31:37.504Z,15.65
2019-05-25T01:34:07.419Z,15.46
2019-05-25T01:36:36.307Z,15.70
2019-05-25T01:39:07.391Z,15.79
2019-05-25T01:41:36.239Z,15.97
2019-05-25T01:44:05.328Z,15.93
2019-05-25T01:46:34.122Z,15.90
2019-05-25T01:49:03.017Z,15.97
2019-05-25T01:51:31.904Z,15.95
2019-05-25T01:54:00.698Z,15.96
2019-05-25T01:56:29.584Z,15.95
2019-05-25T01:58:58.479Z,15.92
2019-05-25T02:01:27.374Z,15.10
2019-05-25T02:03:57.692Z,15.17
2019-05-25T02:06:26.583Z,15.46
2019-05-25T02:08:55.476Z,15.51
2019-05-25T02:11:24.371Z,15.57
2019-05-25T02:13:53.259Z,15.70
2019-05-25T02:16:22.148Z,15.69
2019-05-25T02:18:50.937Z,15.66
2019-05-25T02:21:19.742Z,15.81
2019-05-25T02:23:48.619Z,15.75
2019-05-25T02:26:17.510Z,15.78
2019-05-25T02:28:46.398Z,15.74
2019-05-25T02:31:15.290Z,15.71
2019-05-25T02:33:44.180Z,15.82
2019-05-25T02:36:13.072Z,15.74
2019-05-25T02:38:41.963Z,15.80
2019-05-25T02:41:11.469Z,15.73
2019-05-25T02:43:40.361Z,15.75
2019-05-25T02:46:10.330Z,15.80
2019-05-25T02:48:39.169Z,15.70
2019-05-25T02:51:08.776Z,15.76
2019-05-25T02:53:37.670Z,15.78
2019-05-25T02:56:06.558Z,15.68
2019-05-25T02:58:35.450Z,15.65
2019-05-25T03:01:04.751Z,15.68
2019-05-25T03:03:33.743Z,15.70
2019-05-25T03:06:03.423Z,15.78
2019-05-25T03:08:32.962Z,15.06
2019-05-25T03:11:02.057Z,15.06
2019-05-25T03:13:32.789Z,15.30
2019-05-25T03:16:02.092Z,15.10
2019-05-25T03:18:30.984Z,14.82
2019-05-25T03:20:59.872Z,15.19
2019-05-25T03:23:28.767Z,15.42
2019-05-25T03:25:57.656Z,15.39
2019-05-25T03:28:26.446Z,15.34
2019-05-25T03:30:55.337Z,15.17
2019-05-25T03:33:24.331Z,15.20
2019-05-25T03:35:53.220Z,15.30
2019-05-25T03:38:22.111Z,15.50
2019-05-25T03:40:50.912Z,15.56
2019-05-25T03:43:19.796Z,15.48
2019-05-25T03:45:48.692Z,15.29
2019-05-25T03:48:17.572Z,15.51
2019-05-25T03:50:46.476Z,15.58
2019-05-25T03:53:15.358Z,15.39
2019-05-25T03:55:44.255Z,15.39
2019-05-25T03:58:13.041Z,15.49
2019-05-25T04:00:42.223Z,15.22
2019-05-25T04:03:11.431Z,15.33
2019-05-25T04:05:40.327Z,15.31
2019-05-25T04:08:09.598Z,15.37
2019-05-25T04:10:39.102Z,15.47
2019-05-25T04:13:08.962Z,15.47
2019-05-25T04:15:37.837Z,15.43
2019-05-25T04:18:06.728Z,15.39
2019-05-25T04:20:35.727Z,15.39
2019-05-25T04:23:04.712Z,15.65
2019-05-25T04:25:33.715Z,15.45
2019-05-25T04:28:02.597Z,15.59
2019-05-25T04:30:31.590Z,15.45
2019-05-25T04:33:00.488Z,15.58
2019-05-25T04:35:29.377Z,15.59
2019-05-25T04:37:58.263Z,15.71
2019-05-25T04:40:27.302Z,15.53
2019-05-25T04:42:56.272Z,15.47
2019-05-25T04:45:25.759Z,15.57
2019-05-25T04:47:54.647Z,15.58
2019-05-25T04:50:23.538Z,15.68
2019-05-25T04:52:52.436Z,15.36
2019-05-25T04:55:21.411Z,15.44
2019-05-25T04:57:50.214Z,15.52
2019-05-25T05:00:19.207Z,15.60
2019-05-25T05:02:48.098Z,15.60
2019-05-25T05:05:16.924Z,15.51
2019-05-25T05:07:45.777Z,15.39
2019-05-25T05:10:14.976Z,15.29
2019-05-25T05:12:43.874Z,15.52
2019-05-25T05:15:14.443Z,15.56
2019-05-25T05:17:43.289Z,15.39
2019-05-25T05:20:13.614Z,15.54
2019-05-25T05:22:42.818Z,15.54
2019-05-25T05:25:12.737Z,15.62
2019-05-25T05:27:41.616Z,15.42
2019-05-25T05:30:11.438Z,15.46
2019-05-25T05:32:40.320Z,15.68
2019-05-25T05:35:09.804Z,15.60
2019-05-25T05:37:40.254Z,15.65
2019-05-25T05:40:10.071Z,15.21
2019-05-25T05:42:41.066Z,15.21
2019-05-25T05:45:12.520Z,15.38
2019-05-25T05:47:43.946Z,15.12
2019-05-25T05:50:13.636Z,15.11
2019-05-25T05:52:42.511Z,15.46
2019-05-25T05:55:12.766Z,15.64
2019-05-25T05:57:44.292Z,15.59
2019-05-25T06:00:14.201Z,15.62
2019-05-25T06:02:43.093Z,15.58
2019-05-25T06:05:13.575Z,15.65
2019-05-25T06:07:42.412Z,15.81
2019-05-25T06:10:13.733Z,15.65
2019-05-25T06:12:42.653Z,15.61
2019-05-25T06:15:13.115Z,15.81
2019-05-25T06:17:41.969Z,15.79
2019-05-25T06:20:11.382Z,15.95
2019-05-25T06:22:40.265Z,16.19
2019-05-25T06:25:10.401Z,16.09
2019-05-25T06:27:39.275Z,16.09
2019-05-25T06:30:09.059Z,16.07
2019-05-25T06:32:38.230Z,16.13
2019-05-25T06:35:07.265Z,16.27
2019-05-25T06:37:36.068Z,16.37
2019-05-25T06:40:06.997Z,16.37
2019-05-25T06:42:36.003Z,16.26
2019-05-25T06:45:06.029Z,16.43
2019-05-25T06:47:34.911Z,16.01
2019-05-25T06:50:05.429Z,15.90
2019-05-25T06:52:34.338Z,15.97
2019-05-25T06:55:03.312Z,16.19
2019-05-25T06:57:42.503Z,16.19
2019-05-25T07:00:02.969Z,15.92
2019-05-25T07:02:32.485Z,15.90
2019-05-25T07:05:01.351Z,16.12
2019-05-25T07:07:30.240Z,16.27
2019-05-25T07:09:59.129Z,16.45
2019-05-25T07:12:28.125Z,16.41
2019-05-25T07:14:57.013Z,16.28
2019-05-25T07:17:25.903Z,16.53
2019-05-25T07:19:54.809Z,16.63
2019-05-25T07:22:23.943Z,16.72
2019-05-25T07:24:52.807Z,16.64
2019-05-25T07:27:22.085Z,16.73
2019-05-25T07:29:51.008Z,16.69
2019-05-25T07:32:19.866Z,16.61
2019-05-25T07:34:48.761Z,16.72
2019-05-25T07:37:17.649Z,16.94
2019-05-25T07:39:46.541Z,16.84
2019-05-25T07:42:15.439Z,16.84
2019-05-25T07:44:44.323Z,16.66
2019-05-25T07:47:13.111Z,16.79
2019-05-25T07:49:42.105Z,17.01
2019-05-25T07:52:11.201Z,16.71
2019-05-25T07:54:40.092Z,16.92
2019-05-25T07:57:09.904Z,16.84
2019-05-25T07:59:38.796Z,17.01
2019-05-25T08:02:08.285Z,16.92
2019-05-25T08:04:37.197Z,17.13
2019-05-25T08:07:06.086Z,17.22
2019-05-25T08:09:34.873Z,17.18
2019-05-25T08:12:03.763Z,17.19
2019-05-25T08:14:32.758Z,17.40
2019-05-25T08:17:01.754Z,17.58
2019-05-25T08:19:30.648Z,17.75
2019-05-25T08:21:59.537Z,17.92
2019-05-25T08:24:28.424Z,18.22
2019-05-25T08:26:57.316Z,18.06
2019-05-25T08:29:26.208Z,18.01
2019-05-25T08:31:54.997Z,17.98
2019-05-25T08:34:23.889Z,18.18
2019-05-25T08:36:52.676Z,18.17
2019-05-25T08:39:21.569Z,17.96
2019-05-25T08:41:50.462Z,17.87
2019-05-25T08:44:19.350Z,18.08
2019-05-25T08:46:48.253Z,17.76
2019-05-25T08:49:17.131Z,17.85
2019-05-25T08:51:46.027Z,18.05
2019-05-25T08:54:14.916Z,18.18
2019-05-25T08:56:43.806Z,18.02
2019-05-25T08:59:12.803Z,18.05
2019-05-25T09:01:41.717Z,18.06
2019-05-25T09:04:11.344Z,18.21
2019-05-25T09:06:40.189Z,18.41
2019-05-25T09:09:09.866Z,18.24
2019-05-25T09:11:38.689Z,18.34
2019-05-25T09:14:08.504Z,18.45
2019-05-25T09:16:37.395Z,18.61
2019-05-25T09:19:06.285Z,18.57
2019-05-25T09:21:35.176Z,18.67
2019-05-25T09:24:04.169Z,18.64
2019-05-25T09:26:33.064Z,18.94
2019-05-25T09:29:04.784Z,18.86
2019-05-25T09:31:32.484Z,19.04
2019-05-25T09:34:01.379Z,19.25
2019-05-25T09:36:30.263Z,18.97
2019-05-25T09:38:59.163Z,19.36
2019-05-25T09:41:28.046Z,19.44
2019-05-25T09:43:56.954Z,19.18
2019-05-25T09:46:25.828Z,19.39
2019-05-25T09:48:54.722Z,19.67
2019-05-25T09:51:25.150Z,19.75
2019-05-25T09:53:54.041Z,19.63
2019-05-25T09:56:23.237Z,19.16
2019-05-25T09:58:52.127Z,19.42
2019-05-25T10:01:21.124Z,19.63
2019-05-25T10:03:50.013Z,19.75
2019-05-25T10:06:18.904Z,19.71
2019-05-25T10:08:47.897Z,19.45
2019-05-25T10:11:16.893Z,19.45
2019-05-25T10:13:45.804Z,19.75
2019-05-25T10:16:14.809Z,20.07
2019-05-25T10:18:43.674Z,20.20
2019-05-25T10:21:14.958Z,20.08
2019-05-25T10:23:43.301Z,20.19
2019-05-25T10:26:12.697Z,19.85
2019-05-25T10:28:41.586Z,19.94
2019-05-25T10:31:11.301Z,20.10
2019-05-25T10:33:40.193Z,20.10
2019-05-25T10:36:09.390Z,20.03
2019-05-25T10:38:38.280Z,19.96
2019-05-25T10:41:07.277Z,20.02
2019-05-25T10:43:36.171Z,19.72
2019-05-25T10:46:05.162Z,19.84
2019-05-25T10:48:35.175Z,19.71
2019-05-25T10:51:05.667Z,19.45
2019-05-25T10:53:34.595Z,19.15
2019-05-25T10:56:03.488Z,19.16
2019-05-25T10:58:32.379Z,19.17
2019-05-25T11:01:01.276Z,19.32
2019-05-25T11:03:30.160Z,19.55
2019-05-25T11:05:59.054Z,19.31
2019-05-25T11:08:27.943Z,19.19
2019-05-25T11:10:58.271Z,19.16
2019-05-25T11:13:27.170Z,19.22
2019-05-25T11:15:56.052Z,19.38
2019-05-25T11:18:24.942Z,19.41
2019-05-25T11:20:53.837Z,19.62
2019-05-25T11:23:24.157Z,19.35
2019-05-25T11:25:53.119Z,19.53
2019-05-25T11:28:23.173Z,19.54
2019-05-25T11:30:52.063Z,19.74
2019-05-25T11:33:22.105Z,19.47
2019-05-25T11:35:50.975Z,19.07
2019-05-25T11:38:19.963Z,19.25
2019-05-25T11:40:48.861Z,19.27
2019-05-25T11:43:17.746Z,19.36
2019-05-25T11:45:46.635Z,19.25
2019-05-25T11:48:15.428Z,19.57
2019-05-25T11:50:44.315Z,19.48
2019-05-25T11:53:13.206Z,19.77
2019-05-25T11:55:42.097Z,19.81
2019-05-25T11:58:11.197Z,19.98
2019-05-25T12:00:41.319Z,20.05
2019-05-25T12:03:10.511Z,19.88
2019-05-25T12:05:39.304Z,20.04
2019-05-25T12:08:08.500Z,20.21
2019-05-25T12:10:37.493Z,20.36
2019-05-25T12:13:06.385Z,20.79
2019-05-25T12:15:36.711Z,20.97
2019-05-25T12:18:07.535Z,21.20
2019-05-25T12:20:36.339Z,21.36
2019-05-25T12:23:05.401Z,21.65
2019-05-25T12:25:34.321Z,21.29
2019-05-25T12:28:03.227Z,21.73
2019-05-25T12:30:40.868Z,21.20
2019-05-25T12:33:02.738Z,21.16
2019-05-25T12:35:33.064Z,20.73
2019-05-25T12:38:01.986Z,20.58
2019-05-25T12:40:32.462Z,20.43
2019-05-25T12:43:01.382Z,20.00
2019-05-25T12:45:30.269Z,19.84
2019-05-25T12:47:59.159Z,19.90
2019-05-25T12:50:28.047Z,19.87
2019-05-25T12:52:56.945Z,19.87
2019-05-25T12:55:25.834Z,19.71
2019-05-25T12:57:54.725Z,19.61
2019-05-25T13:00:24.023Z,19.62
2019-05-25T13:02:52.916Z,19.70
2019-05-25T13:05:33.623Z,19.38
2019-05-25T13:07:53.463Z,19.34
2019-05-25T13:10:25.013Z,19.28
2019-05-25T13:12:53.933Z,19.04
2019-05-25T13:15:22.819Z,18.95
2019-05-25T13:17:51.793Z,18.83
2019-05-25T13:20:20.993Z,18.83
2019-05-25T13:22:49.885Z,18.98
2019-05-25T13:25:18.780Z,19.07
2019-05-25T13:27:47.671Z,19.36
2019-05-25T13:30:17.904Z,19.50
2019-05-25T13:32:46.782Z,19.61
2019-05-25T13:35:15.906Z,19.61
2019-05-25T13:37:44.770Z,19.73
2019-05-25T13:40:13.963Z,19.49
2019-05-25T13:42:42.856Z,19.37
2019-05-25T13:45:13.382Z,19.38
2019-05-25T13:47:42.279Z,19.54
2019-05-25T13:50:12.141Z,19.40
2019-05-25T13:52:41.079Z,19.31
2019-05-25T13:55:10.728Z,19.37
2019-05-25T13:57:39.787Z,19.02
2019-05-25T14:00:09.389Z,18.42
2019-05-25T14:02:38.289Z,18.22
2019-05-25T14:05:07.681Z,18.10
2019-05-25T14:07:36.580Z,18.12
2019-05-25T14:10:08.288Z,18.19
2019-05-25T14:12:37.231Z,18.21
2019-05-25T14:15:08.036Z,18.05
2019-05-25T14:17:37.061Z,17.94
2019-05-25T14:20:07.691Z,18.06
2019-05-25T14:22:36.581Z,18.08
2019-05-25T14:25:07.230Z,18.09
2019-05-25T14:27:36.105Z,18.05
2019-05-25T14:30:06.203Z,18.02
2019-05-25T14:32:35.123Z,18.15
2019-05-25T14:35:04.517Z,18.15
2019-05-25T14:37:33.410Z,18.20
2019-05-25T14:40:02.304Z,17.98
2019-05-25T14:42:31.194Z,17.88
2019-05-25T14:45:00.103Z,18.17
2019-05-25T14:47:29.178Z,18.46
2019-05-25T14:49:58.099Z,18.57
2019-05-25T14:52:26.962Z,18.64
2019-05-25T14:54:55.851Z,18.65
2019-05-25T14:57:24.856Z,18.75
2019-05-25T14:59:53.738Z,18.87
2019-05-25T15:02:22.631Z,18.88
2019-05-25T15:04:51.521Z,19.48
2019-05-25T15:07:20.411Z,20.57
2019-05-25T15:09:49.302Z,21.26
2019-05-25T15:12:19.626Z,21.35
2019-05-25T15:14:48.519Z,20.52
2019-05-25T15:17:17.408Z,20.20
2019-05-25T15:19:46.299Z,20.03
2019-05-25T15:22:15.342Z,19.70
2019-05-25T15:24:44.492Z,19.63
2019-05-25T15:27:13.382Z,19.57
2019-05-25T15:29:42.274Z,19.47
2019-05-25T15:32:20.188Z,19.13
2019-05-25T15:34:42.311Z,19.30
2019-05-25T15:37:12.331Z,19.22
2019-05-25T15:39:41.220Z,19.29
2019-05-25T15:42:10.521Z,19.20
2019-05-25T15:44:39.414Z,19.16
2019-05-25T15:47:08.478Z,19.15
2019-05-25T15:49:37.402Z,18.64
2019-05-25T15:52:06.600Z,18.91
2019-05-25T15:54:35.488Z,18.86
2019-05-25T15:57:04.689Z,18.83
2019-05-25T15:59:33.679Z,18.85
2019-05-25T16:02:02.682Z,18.75
2019-05-25T16:04:31.667Z,18.87
2019-05-25T16:07:00.459Z,18.47
2019-05-25T16:09:29.351Z,18.45
2019-05-25T16:11:58.242Z,18.33
2019-05-25T16:14:27.161Z,17.50
2019-05-25T16:16:56.022Z,17.62
2019-05-25T16:19:24.910Z,17.32
2019-05-25T16:21:53.814Z,17.39
2019-05-25T16:24:22.665Z,17.66
2019-05-25T16:26:51.585Z,17.39
2019-05-25T16:29:20.503Z,16.90
2019-05-25T16:31:49.367Z,17.08
2019-05-25T16:34:18.363Z,17.06
2019-05-25T16:36:47.251Z,17.06
2019-05-25T16:39:16.144Z,16.95
2019-05-25T16:41:45.147Z,16.99
2019-05-25T16:44:14.028Z,16.83
2019-05-25T16:46:42.822Z,16.71
2019-05-25T16:49:11.943Z,16.54
2019-05-25T16:51:40.802Z,16.53
2019-05-25T16:54:09.900Z,16.35
2019-05-25T16:56:41.248Z,16.34
2019-05-25T16:59:10.858Z,16.20
2019-05-25T17:01:48.194Z,15.85
2019-05-25T17:04:11.548Z,16.27
2019-05-25T17:06:40.618Z,16.44
2019-05-25T17:09:10.115Z,16.43
2019-05-25T17:11:39.005Z,16.50
2019-05-25T17:14:08.683Z,16.80
2019-05-25T17:16:39.041Z,16.70
2019-05-25T17:19:08.864Z,16.48
2019-05-25T17:21:37.739Z,16.35
2019-05-25T17:24:09.207Z,16.36
2019-05-25T17:26:38.083Z,16.34
2019-05-25T17:29:07.968Z,15.69
2019-05-25T17:31:36.911Z,15.94
2019-05-25T17:34:06.004Z,16.09
2019-05-25T17:36:34.877Z,16.22
2019-05-25T17:39:03.966Z,16.05
2019-05-25T17:41:32.864Z,16.06
2019-05-25T17:44:01.755Z,15.89
2019-05-25T17:46:30.701Z,15.71
2019-05-25T17:48:59.655Z,15.70
2019-05-25T17:51:28.531Z,15.75
2019-05-25T17:53:58.861Z,15.46
2019-05-25T17:56:27.752Z,15.52
2019-05-25T17:58:57.181Z,15.39
2019-05-25T18:01:26.044Z,15.82
2019-05-25T18:04:06.350Z,15.49
2019-05-25T18:06:25.772Z,15.46
2019-05-25T18:08:54.762Z,15.37
2019-05-25T18:11:23.654Z,15.75
2019-05-25T18:13:52.750Z,16.02
2019-05-25T18:16:25.135Z,16.19
2019-05-25T18:18:54.016Z,16.04
2019-05-25T18:21:22.903Z,15.64
2019-05-25T18:23:51.798Z,15.88
2019-05-25T18:26:20.583Z,16.07
2019-05-25T18:28:49.387Z,15.88
2019-05-25T18:31:18.263Z,15.98
2019-05-25T18:33:47.156Z,16.01
2019-05-25T18:36:16.045Z,16.23
2019-05-25T18:38:44.939Z,16.22
2019-05-25T18:41:15.670Z,16.37
2019-05-25T18:43:44.569Z,15.97
2019-05-25T18:46:13.458Z,15.71
2019-05-25T18:48:42.250Z,15.30
2019-05-25T18:51:11.544Z,15.24
2019-05-25T18:53:40.437Z,15.54
2019-05-25T18:56:09.635Z,15.81
2019-05-25T18:58:38.525Z,15.61
2019-05-25T19:01:08.242Z,15.62
2019-05-25T19:03:38.661Z,15.65
2019-05-25T19:06:07.656Z,15.65
2019-05-25T19:08:36.445Z,15.74
2019-05-25T19:11:05.440Z,15.43
2019-05-25T19:13:34.329Z,15.38
2019-05-25T19:16:03.397Z,15.46
2019-05-25T19:18:32.316Z,15.32
2019-05-25T19:21:01.220Z,15.30
2019-05-25T19:23:30.101Z,15.18
2019-05-25T19:25:59.093Z,15.20
2019-05-25T19:28:27.983Z,15.12
2019-05-25T19:30:56.878Z,15.12
2019-05-25T19:33:25.767Z,15.20
2019-05-25T19:35:56.093Z,15.27
2019-05-25T19:38:24.985Z,14.80
2019-05-25T19:40:53.875Z,14.99
2019-05-25T19:43:23.689Z,15.13
2019-05-25T19:45:52.782Z,14.73
2019-05-25T19:48:21.639Z,14.83
2019-05-25T19:50:50.465Z,14.37
2019-05-25T19:53:19.357Z,14.55
2019-05-25T19:55:49.473Z,14.78
2019-05-25T19:58:18.366Z,14.63
2019-05-25T20:00:47.249Z,14.96
2019-05-25T20:03:16.147Z,14.97
2019-05-25T20:05:45.656Z,14.95
2019-05-25T20:08:14.544Z,14.09
2019-05-25T20:10:43.537Z,14.42
2019-05-25T20:13:12.429Z,14.57
2019-05-25T20:15:41.321Z,14.56
2019-05-25T20:18:11.340Z,14.97
2019-05-25T20:20:41.766Z,15.05
2019-05-25T20:23:11.419Z,15.02
2019-05-25T20:25:40.266Z,15.15
2019-05-25T20:28:09.261Z,14.76
2019-05-25T20:30:38.053Z,14.44
2019-05-25T20:33:06.938Z,14.87
2019-05-25T20:35:35.829Z,15.00
2019-05-25T20:38:04.720Z,15.14
2019-05-25T20:40:33.612Z,15.13
2019-05-25T20:43:03.943Z,15.18
2019-05-25T20:45:32.831Z,15.34
2019-05-25T20:48:01.723Z,14.94
2019-05-25T20:50:30.625Z,14.60
2019-05-25T20:52:59.504Z,14.82
2019-05-25T20:55:28.394Z,14.88
2019-05-25T20:57:57.283Z,14.61
2019-05-25T21:00:26.176Z,14.90
2019-05-25T21:03:05.387Z,14.93
2019-05-25T21:05:25.697Z,15.00
2019-05-25T21:07:54.591Z,14.99
2019-05-25T21:10:23.481Z,15.09
2019-05-25T21:12:52.375Z,15.06
2019-05-25T21:15:21.365Z,15.04
2019-05-25T21:17:50.255Z,14.79
2019-05-25T21:20:19.254Z,14.74
2019-05-25T21:22:48.139Z,14.56
2019-05-25T21:25:17.970Z,14.75
2019-05-25T21:27:46.846Z,14.58
2019-05-25T21:30:16.927Z,14.17
2019-05-25T21:32:45.863Z,14.20
2019-05-25T21:35:14.843Z,14.30
2019-05-25T21:37:43.639Z,14.45
2019-05-25T21:40:13.451Z,14.28
2019-05-25T21:42:42.349Z,14.25
2019-05-25T21:45:12.752Z,14.04
2019-05-25T21:47:41.662Z,14.15
2019-05-25T21:50:11.338Z,14.36
2019-05-25T21:52:41.701Z,14.48
2019-05-25T21:55:11.059Z,14.69
2019-05-25T21:57:39.886Z,14.50
2019-05-25T22:00:12.173Z,14.45
2019-05-25T22:02:41.151Z,14.03
2019-05-25T22:05:11.785Z,14.10
2019-05-25T22:07:40.573Z,14.57
2019-05-25T22:10:10.909Z,14.00
2019-05-25T22:12:40.487Z,14.22
2019-05-25T22:15:12.238Z,14.32
2019-05-25T22:17:41.060Z,14.41
2019-05-25T22:20:10.697Z,14.51
2019-05-25T22:22:39.654Z,14.61
2019-05-25T22:25:09.027Z,14.50
2019-05-25T22:27:37.809Z,14.48
2019-05-25T22:30:09.390Z,14.71
2019-05-25T22:32:38.393Z,14.71
2019-05-25T22:35:08.278Z,14.71
2019-05-25T22:37:37.099Z,14.56
2019-05-25T22:40:07.934Z,13.71
2019-05-25T22:42:36.830Z,13.92
2019-05-25T22:45:08.228Z,14.20
2019-05-25T22:47:37.074Z,14.26
2019-05-25T22:50:06.647Z,14.35
2019-05-25T22:52:35.564Z,14.26
2019-05-25T22:55:08.138Z,14.02
2019-05-25T22:57:36.940Z,13.86
2019-05-25T23:00:09.332Z,14.09
2019-05-25T23:02:38.195Z,13.80
2019-05-25T23:05:08.848Z,13.91
2019-05-25T23:07:37.829Z,13.05
2019-05-25T23:10:08.414Z,13.26
2019-05-25T23:12:37.344Z,12.99
2019-05-25T23:15:07.737Z,13.13
2019-05-25T23:17:36.565Z,13.33
2019-05-25T23:20:07.805Z,13.20
2019-05-25T23:22:36.702Z,13.19
2019-05-25T23:25:05.899Z,13.21
2019-05-25T23:27:34.859Z,13.37
2019-05-25T23:30:04.293Z,13.46
2019-05-25T23:32:33.273Z,13.46
2019-05-25T23:35:02.081Z,13.48
2019-05-25T23:37:30.966Z,13.25
2019-05-25T23:39:59.857Z,13.11
2019-05-25T23:42:28.748Z,13.16
2019-05-25T23:44:57.543Z,13.11
2019-05-25T23:47:26.428Z,12.92
2019-05-25T23:49:55.218Z,12.94
2019-05-25T23:52:24.108Z,13.13
2019-05-25T23:54:53.004Z,12.89
2019-05-25T23:57:22.914Z,12.94
2019-05-25T23:59:51.805Z,12.92
